sensor_id;sensor_type;location;lat;lon;timestamp;P1;durP1;ratioP1;P2;durP2;ratioP2
9934;SDS011;5006;41.828;23.478;2023-05-19T00:01:00;7.18;;;6.05;;
9934;SDS011;5006;41.828;23.478;2023-05-19T00:02:06;6.95;;;6.18;;
9934;SDS011;5006;41.828;23.478;2023-05-19T00:03:13;7.38;;;6.57;;
9934;SDS011;5006;41.828;23.478;2023-05-19T00:04:19;6.70;;;6.10;;
9934;SDS011;5006;41.828;23.478;2023-05-19T00:05:26;8.65;;;5.82;;
9934;SDS011;5006;41.828;23.478;2023-05-19T00:06:32;6.82;;;6.18;;
9934;SDS011;5006;41.828;23.478;2023-05-19T00:07:40;6.65;;;6.03;;
9934;SDS011;5006;41.828;23.478;2023-05-19T00:08:48;6.57;;;5.90;;
9934;SDS011;5006;41.828;23.478;2023-05-19T00:09:54;6.55;;;5.82;;
9934;SDS011;5006;41.828;23.478;2023-05-19T00:11:00;7.55;;;6.25;;
9934;SDS011;5006;41.828;23.478;2023-05-19T00:12:09;6.35;;;5.72;;
9934;SDS011;5006;41.828;23.478;2023-05-19T00:13:15;9.32;;;6.00;;
9934;SDS011;5006;41.828;23.478;2023-05-19T00:14:22;7.38;;;5.78;;
9934;SDS011;5006;41.828;23.478;2023-05-19T00:15:28;8.48;;;5.65;;
9934;SDS011;5006;41.828;23.478;2023-05-19T00:16:35;8.02;;;5.43;;
9934;SDS011;5006;41.828;23.478;2023-05-19T00:17:41;5.55;;;5.05;;
9934;SDS011;5006;41.828;23.478;2023-05-19T00:18:48;5.60;;;5.10;;
9934;SDS011;5006;41.828;23.478;2023-05-19T00:19:54;7.82;;;5.20;;
9934;SDS011;5006;41.828;23.478;2023-05-19T00:21:00;5.68;;;5.07;;
9934;SDS011;5006;41.828;23.478;2023-05-19T00:22:05;5.60;;;5.07;;
9934;SDS011;5006;41.828;23.478;2023-05-19T00:23:11;6.40;;;5.22;;
9934;SDS011;5006;41.828;23.478;2023-05-19T00:24:15;6.38;;;4.63;;
9934;SDS011;5006;41.828;23.478;2023-05-19T00:25:21;6.20;;;5.00;;
9934;SDS011;5006;41.828;23.478;2023-05-19T00:26:27;5.97;;;5.30;;
9934;SDS011;5006;41.828;23.478;2023-05-19T00:27:41;8.00;;;4.93;;
9934;SDS011;5006;41.828;23.478;2023-05-19T00:28:46;6.13;;;5.00;;
9934;SDS011;5006;41.828;23.478;2023-05-19T00:29:51;6.78;;;4.95;;
9934;SDS011;5006;41.828;23.478;2023-05-19T00:30:56;5.60;;;5.10;;
9934;SDS011;5006;41.828;23.478;2023-05-19T00:32:03;5.80;;;5.20;;
9934;SDS011;5006;41.828;23.478;2023-05-19T00:33:08;8.20;;;5.68;;
9934;SDS011;5006;41.828;23.478;2023-05-19T00:34:15;8.13;;;5.75;;
9934;SDS011;5006;41.828;23.478;2023-05-19T00:35:20;7.07;;;5.18;;
9934;SDS011;5006;41.828;23.478;2023-05-19T00:36:28;5.95;;;5.35;;
9934;SDS011;5006;41.828;23.478;2023-05-19T00:37:33;5.85;;;5.25;;
9934;SDS011;5006;41.828;23.478;2023-05-19T00:38:39;5.82;;;5.30;;
9934;SDS011;5006;41.828;23.478;2023-05-19T00:39:44;7.05;;;5.22;;
9934;SDS011;5006;41.828;23.478;2023-05-19T00:40:50;7.35;;;4.95;;
9934;SDS011;5006;41.828;23.478;2023-05-19T00:41:55;7.03;;;5.40;;
9934;SDS011;5006;41.828;23.478;2023-05-19T00:43:03;5.72;;;5.10;;
9934;SDS011;5006;41.828;23.478;2023-05-19T00:44:08;6.78;;;4.75;;
9934;SDS011;5006;41.828;23.478;2023-05-19T00:45:14;5.95;;;4.68;;
9934;SDS011;5006;41.828;23.478;2023-05-19T00:46:19;5.43;;;4.68;;
9934;SDS011;5006;41.828;23.478;2023-05-19T00:47:26;6.43;;;4.88;;
9934;SDS011;5006;41.828;23.478;2023-05-19T00:48:32;5.50;;;4.50;;
9934;SDS011;5006;41.828;23.478;2023-05-19T00:49:39;5.28;;;4.50;;
9934;SDS011;5006;41.828;23.478;2023-05-19T00:50:44;5.10;;;4.60;;
9934;SDS011;5006;41.828;23.478;2023-05-19T00:51:50;6.80;;;4.60;;
9934;SDS011;5006;41.828;23.478;2023-05-19T00:52:56;5.30;;;4.15;;
9934;SDS011;5006;41.828;23.478;2023-05-19T00:54:21;5.10;;;4.63;;
9934;SDS011;5006;41.828;23.478;2023-05-19T00:55:29;7.20;;;4.80;;
9934;SDS011;5006;41.828;23.478;2023-05-19T00:56:36;8.73;;;4.45;;
9934;SDS011;5006;41.828;23.478;2023-05-19T00:57:43;6.35;;;4.35;;
9934;SDS011;5006;41.828;23.478;2023-05-19T00:58:51;5.68;;;4.20;;
9934;SDS011;5006;41.828;23.478;2023-05-19T00:59:57;4.50;;;4.10;;
9934;SDS011;5006;41.828;23.478;2023-05-19T01:01:02;6.07;;;4.25;;
9934;SDS011;5006;41.828;23.478;2023-05-19T01:02:10;7.22;;;4.30;;
9934;SDS011;5006;41.828;23.478;2023-05-19T01:03:15;6.32;;;4.70;;
9934;SDS011;5006;41.828;23.478;2023-05-19T01:04:23;5.40;;;4.20;;
9934;SDS011;5006;41.828;23.478;2023-05-19T01:05:29;4.95;;;4.28;;
9934;SDS011;5006;41.828;23.478;2023-05-19T01:06:35;5.07;;;4.45;;
9934;SDS011;5006;41.828;23.478;2023-05-19T01:07:41;5.07;;;4.10;;
9934;SDS011;5006;41.828;23.478;2023-05-19T01:08:47;6.53;;;4.45;;
9934;SDS011;5006;41.828;23.478;2023-05-19T01:09:52;4.80;;;4.30;;
9934;SDS011;5006;41.828;23.478;2023-05-19T01:10:59;5.85;;;3.97;;
9934;SDS011;5006;41.828;23.478;2023-05-19T01:12:04;5.85;;;4.10;;
9934;SDS011;5006;41.828;23.478;2023-05-19T01:14:36;4.22;;;3.83;;
9934;SDS011;5006;41.828;23.478;2023-05-19T01:15:47;4.78;;;4.00;;
9934;SDS011;5006;41.828;23.478;2023-05-19T01:17:05;5.05;;;4.35;;
9934;SDS011;5006;41.828;23.478;2023-05-19T01:18:19;5.00;;;4.50;;
9934;SDS011;5006;41.828;23.478;2023-05-19T01:19:40;6.28;;;4.63;;
9934;SDS011;5006;41.828;23.478;2023-05-19T01:21:01;5.55;;;4.35;;
9934;SDS011;5006;41.828;23.478;2023-05-19T01:22:24;5.63;;;5.03;;
9934;SDS011;5006;41.828;23.478;2023-05-19T01:23:38;5.57;;;4.18;;
9934;SDS011;5006;41.828;23.478;2023-05-19T01:26:48;5.32;;;4.07;;
9934;SDS011;5006;41.828;23.478;2023-05-19T01:28:14;4.38;;;3.97;;
9934;SDS011;5006;41.828;23.478;2023-05-19T01:29:41;4.85;;;4.32;;
9934;SDS011;5006;41.828;23.478;2023-05-19T01:31:02;4.68;;;4.07;;
9934;SDS011;5006;41.828;23.478;2023-05-19T01:32:10;5.45;;;4.43;;
9934;SDS011;5006;41.828;23.478;2023-05-19T01:33:20;6.15;;;4.72;;
9934;SDS011;5006;41.828;23.478;2023-05-19T01:34:26;5.78;;;5.18;;
9934;SDS011;5006;41.828;23.478;2023-05-19T01:35:36;6.50;;;4.82;;
9934;SDS011;5006;41.828;23.478;2023-05-19T01:36:43;5.57;;;4.95;;
9934;SDS011;5006;41.828;23.478;2023-05-19T01:37:53;5.82;;;5.32;;
9934;SDS011;5006;41.828;23.478;2023-05-19T01:39:01;6.22;;;5.28;;
9934;SDS011;5006;41.828;23.478;2023-05-19T01:40:08;6.13;;;5.10;;
9934;SDS011;5006;41.828;23.478;2023-05-19T01:41:14;6.10;;;5.60;;
9934;SDS011;5006;41.828;23.478;2023-05-19T01:42:21;5.97;;;5.47;;
9934;SDS011;5006;41.828;23.478;2023-05-19T01:43:27;5.90;;;5.38;;
9934;SDS011;5006;41.828;23.478;2023-05-19T01:44:32;5.85;;;5.30;;
9934;SDS011;5006;41.828;23.478;2023-05-19T01:45:39;6.43;;;5.82;;
9934;SDS011;5006;41.828;23.478;2023-05-19T01:46:46;6.20;;;5.70;;
9934;SDS011;5006;41.828;23.478;2023-05-19T01:47:53;8.35;;;6.05;;
9934;SDS011;5006;41.828;23.478;2023-05-19T01:49:00;5.90;;;5.40;;
9934;SDS011;5006;41.828;23.478;2023-05-19T01:50:07;7.13;;;6.00;;
9934;SDS011;5006;41.828;23.478;2023-05-19T01:51:13;5.90;;;5.40;;
9934;SDS011;5006;41.828;23.478;2023-05-19T01:52:20;6.47;;;5.60;;
9934;SDS011;5006;41.828;23.478;2023-05-19T01:53:26;6.15;;;5.60;;
9934;SDS011;5006;41.828;23.478;2023-05-19T01:54:33;6.80;;;6.00;;
9934;SDS011;5006;41.828;23.478;2023-05-19T01:55:41;6.47;;;5.88;;
9934;SDS011;5006;41.828;23.478;2023-05-19T01:56:49;6.30;;;5.68;;
9934;SDS011;5006;41.828;23.478;2023-05-19T01:58:02;6.43;;;5.82;;
9934;SDS011;5006;41.828;23.478;2023-05-19T01:59:22;7.20;;;6.40;;
9934;SDS011;5006;41.828;23.478;2023-05-19T02:00:44;8.23;;;6.55;;
9934;SDS011;5006;41.828;23.478;2023-05-19T02:01:58;6.38;;;5.80;;
9934;SDS011;5006;41.828;23.478;2023-05-19T02:03:13;7.10;;;6.35;;
9934;SDS011;5006;41.828;23.478;2023-05-19T02:04:28;7.00;;;6.40;;
9934;SDS011;5006;41.828;23.478;2023-05-19T02:05:44;9.63;;;6.30;;
9934;SDS011;5006;41.828;23.478;2023-05-19T02:06:58;7.05;;;6.45;;
9934;SDS011;5006;41.828;23.478;2023-05-19T02:08:10;7.85;;;6.35;;
9934;SDS011;5006;41.828;23.478;2023-05-19T02:09:24;7.45;;;6.55;;
9934;SDS011;5006;41.828;23.478;2023-05-19T02:10:39;7.45;;;6.75;;
9934;SDS011;5006;41.828;23.478;2023-05-19T02:11:49;8.10;;;7.30;;
9934;SDS011;5006;41.828;23.478;2023-05-19T02:12:59;9.43;;;7.68;;
9934;SDS011;5006;41.828;23.478;2023-05-19T02:14:11;7.57;;;6.70;;
9934;SDS011;5006;41.828;23.478;2023-05-19T02:15:23;9.18;;;7.47;;
9934;SDS011;5006;41.828;23.478;2023-05-19T02:16:30;9.68;;;7.22;;
9934;SDS011;5006;41.828;23.478;2023-05-19T02:17:42;8.00;;;7.18;;
9934;SDS011;5006;41.828;23.478;2023-05-19T02:18:51;8.20;;;7.30;;
9934;SDS011;5006;41.828;23.478;2023-05-19T02:19:57;8.52;;;7.57;;
9934;SDS011;5006;41.828;23.478;2023-05-19T02:21:02;8.15;;;7.43;;
9934;SDS011;5006;41.828;23.478;2023-05-19T02:22:07;9.50;;;8.55;;
9934;SDS011;5006;41.828;23.478;2023-05-19T02:23:12;9.20;;;7.82;;
9934;SDS011;5006;41.828;23.478;2023-05-19T02:24:18;8.93;;;8.02;;
9934;SDS011;5006;41.828;23.478;2023-05-19T02:25:25;10.32;;;9.00;;
9934;SDS011;5006;41.828;23.478;2023-05-19T02:26:31;9.95;;;8.57;;
9934;SDS011;5006;41.828;23.478;2023-05-19T02:27:37;9.82;;;8.77;;
9934;SDS011;5006;41.828;23.478;2023-05-19T02:28:44;10.25;;;9.13;;
9934;SDS011;5006;41.828;23.478;2023-05-19T02:29:50;8.88;;;8.07;;
9934;SDS011;5006;41.828;23.478;2023-05-19T02:30:55;9.35;;;7.88;;
9934;SDS011;5006;41.828;23.478;2023-05-19T02:32:00;9.02;;;7.82;;
9934;SDS011;5006;41.828;23.478;2023-05-19T02:33:08;9.15;;;8.18;;
9934;SDS011;5006;41.828;23.478;2023-05-19T02:34:15;8.65;;;7.60;;
9934;SDS011;5006;41.828;23.478;2023-05-19T02:35:21;10.57;;;7.88;;
9934;SDS011;5006;41.828;23.478;2023-05-19T02:36:27;9.52;;;7.78;;
9934;SDS011;5006;41.828;23.478;2023-05-19T02:37:33;8.82;;;7.85;;
9934;SDS011;5006;41.828;23.478;2023-05-19T02:38:38;8.95;;;8.05;;
9934;SDS011;5006;41.828;23.478;2023-05-19T02:39:45;9.93;;;8.43;;
9934;SDS011;5006;41.828;23.478;2023-05-19T02:40:50;7.95;;;7.25;;
9934;SDS011;5006;41.828;23.478;2023-05-19T02:41:57;9.20;;;7.40;;
9934;SDS011;5006;41.828;23.478;2023-05-19T02:43:01;8.90;;;8.10;;
9934;SDS011;5006;41.828;23.478;2023-05-19T02:44:07;9.05;;;8.15;;
9934;SDS011;5006;41.828;23.478;2023-05-19T02:45:14;9.90;;;8.90;;
9934;SDS011;5006;41.828;23.478;2023-05-19T02:46:20;9.13;;;8.23;;
9934;SDS011;5006;41.828;23.478;2023-05-19T02:47:25;10.40;;;9.27;;
9934;SDS011;5006;41.828;23.478;2023-05-19T02:48:33;10.32;;;9.23;;
9934;SDS011;5006;41.828;23.478;2023-05-19T02:49:39;11.52;;;9.57;;
9934;SDS011;5006;41.828;23.478;2023-05-19T02:50:46;11.60;;;9.57;;
9934;SDS011;5006;41.828;23.478;2023-05-19T02:51:52;10.25;;;8.85;;
9934;SDS011;5006;41.828;23.478;2023-05-19T02:52:57;8.70;;;7.85;;
9934;SDS011;5006;41.828;23.478;2023-05-19T02:54:03;9.70;;;8.75;;
9934;SDS011;5006;41.828;23.478;2023-05-19T02:55:09;9.43;;;8.63;;
9934;SDS011;5006;41.828;23.478;2023-05-19T02:56:19;10.25;;;9.25;;
9934;SDS011;5006;41.828;23.478;2023-05-19T02:57:25;10.48;;;8.82;;
9934;SDS011;5006;41.828;23.478;2023-05-19T02:58:31;9.88;;;8.93;;
9934;SDS011;5006;41.828;23.478;2023-05-19T02:59:36;9.63;;;8.63;;
9934;SDS011;5006;41.828;23.478;2023-05-19T03:00:42;9.70;;;8.73;;
9934;SDS011;5006;41.828;23.478;2023-05-19T03:01:49;10.55;;;9.55;;
9934;SDS011;5006;41.828;23.478;2023-05-19T03:02:54;13.02;;;11.13;;
9934;SDS011;5006;41.828;23.478;2023-05-19T03:04:01;14.50;;;13.05;;
9934;SDS011;5006;41.828;23.478;2023-05-19T03:05:07;20.20;;;14.43;;
9934;SDS011;5006;41.828;23.478;2023-05-19T03:06:14;19.63;;;15.10;;
9934;SDS011;5006;41.828;23.478;2023-05-19T03:07:21;15.50;;;13.88;;
9934;SDS011;5006;41.828;23.478;2023-05-19T03:08:29;16.67;;;14.35;;
9934;SDS011;5006;41.828;23.478;2023-05-19T03:09:34;15.35;;;13.57;;
9934;SDS011;5006;41.828;23.478;2023-05-19T03:10:40;15.23;;;13.10;;
9934;SDS011;5006;41.828;23.478;2023-05-19T03:11:45;13.73;;;11.13;;
9934;SDS011;5006;41.828;23.478;2023-05-19T03:12:52;11.93;;;10.65;;
9934;SDS011;5006;41.828;23.478;2023-05-19T03:13:57;12.73;;;10.68;;
9934;SDS011;5006;41.828;23.478;2023-05-19T03:15:04;12.40;;;11.20;;
9934;SDS011;5006;41.828;23.478;2023-05-19T03:16:09;13.23;;;10.93;;
9934;SDS011;5006;41.828;23.478;2023-05-19T03:17:15;13.88;;;11.57;;
9934;SDS011;5006;41.828;23.478;2023-05-19T03:18:21;14.43;;;11.57;;
9934;SDS011;5006;41.828;23.478;2023-05-19T03:19:29;12.73;;;11.52;;
9934;SDS011;5006;41.828;23.478;2023-05-19T03:20:36;13.50;;;12.10;;
9934;SDS011;5006;41.828;23.478;2023-05-19T03:21:42;14.48;;;12.40;;
9934;SDS011;5006;41.828;23.478;2023-05-19T03:22:47;12.63;;;11.40;;
9934;SDS011;5006;41.828;23.478;2023-05-19T03:23:54;14.57;;;11.68;;
9934;SDS011;5006;41.828;23.478;2023-05-19T03:24:59;12.30;;;11.10;;
9934;SDS011;5006;41.828;23.478;2023-05-19T03:26:05;12.77;;;11.48;;
9934;SDS011;5006;41.828;23.478;2023-05-19T03:27:11;13.82;;;11.75;;
9934;SDS011;5006;41.828;23.478;2023-05-19T03:28:18;12.40;;;11.20;;
9934;SDS011;5006;41.828;23.478;2023-05-19T03:29:24;12.65;;;11.38;;
9934;SDS011;5006;41.828;23.478;2023-05-19T03:30:31;12.82;;;11.52;;
9934;SDS011;5006;41.828;23.478;2023-05-19T03:31:45;14.02;;;11.90;;
9934;SDS011;5006;41.828;23.478;2023-05-19T03:32:53;15.70;;;10.98;;
9934;SDS011;5006;41.828;23.478;2023-05-19T03:33:57;13.38;;;11.60;;
9934;SDS011;5006;41.828;23.478;2023-05-19T03:35:05;14.40;;;12.68;;
9934;SDS011;5006;41.828;23.478;2023-05-19T03:36:11;17.35;;;15.65;;
9934;SDS011;5006;41.828;23.478;2023-05-19T03:37:17;14.63;;;13.13;;
9934;SDS011;5006;41.828;23.478;2023-05-19T03:38:23;15.70;;;14.18;;
9934;SDS011;5006;41.828;23.478;2023-05-19T03:39:34;16.17;;;14.48;;
9934;SDS011;5006;41.828;23.478;2023-05-19T03:40:39;15.35;;;13.90;;
9934;SDS011;5006;41.828;23.478;2023-05-19T03:41:47;14.57;;;13.07;;
9934;SDS011;5006;41.828;23.478;2023-05-19T03:42:54;17.08;;;14.18;;
9934;SDS011;5006;41.828;23.478;2023-05-19T03:43:59;15.07;;;13.57;;
9934;SDS011;5006;41.828;23.478;2023-05-19T03:45:06;241.90;;;28.90;;
9934;SDS011;5006;41.828;23.478;2023-05-19T03:46:12;21.38;;;16.38;;
9934;SDS011;5006;41.828;23.478;2023-05-19T03:47:26;16.88;;;13.90;;
9934;SDS011;5006;41.828;23.478;2023-05-19T03:49:02;20.80;;;15.95;;
9934;SDS011;5006;41.828;23.478;2023-05-19T03:50:32;20.10;;;16.35;;
9934;SDS011;5006;41.828;23.478;2023-05-19T03:51:54;17.92;;;16.10;;
9934;SDS011;5006;41.828;23.478;2023-05-19T03:53:07;15.90;;;14.30;;
9934;SDS011;5006;41.828;23.478;2023-05-19T03:54:19;17.00;;;15.30;;
9934;SDS011;5006;41.828;23.478;2023-05-19T03:55:26;18.23;;;15.82;;
9934;SDS011;5006;41.828;23.478;2023-05-19T03:56:36;17.70;;;15.80;;
9934;SDS011;5006;41.828;23.478;2023-05-19T03:57:45;18.10;;;16.20;;
9934;SDS011;5006;41.828;23.478;2023-05-19T03:58:51;18.40;;;15.30;;
9934;SDS011;5006;41.828;23.478;2023-05-19T03:59:59;19.08;;;17.25;;
9934;SDS011;5006;41.828;23.478;2023-05-19T04:01:04;19.08;;;15.98;;
9934;SDS011;5006;41.828;23.478;2023-05-19T04:02:10;16.65;;;15.05;;
9934;SDS011;5006;41.828;23.478;2023-05-19T04:03:17;16.50;;;14.48;;
9934;SDS011;5006;41.828;23.478;2023-05-19T04:04:23;17.50;;;15.48;;
9934;SDS011;5006;41.828;23.478;2023-05-19T04:05:29;17.38;;;15.60;;
9934;SDS011;5006;41.828;23.478;2023-05-19T04:06:35;18.75;;;16.25;;
9934;SDS011;5006;41.828;23.478;2023-05-19T04:07:41;16.90;;;15.18;;
9934;SDS011;5006;41.828;23.478;2023-05-19T04:08:46;16.60;;;14.90;;
9934;SDS011;5006;41.828;23.478;2023-05-19T04:09:52;17.27;;;15.07;;
9934;SDS011;5006;41.828;23.478;2023-05-19T04:10:57;16.58;;;14.98;;
9934;SDS011;5006;41.828;23.478;2023-05-19T04:12:04;16.60;;;15.07;;
9934;SDS011;5006;41.828;23.478;2023-05-19T04:13:10;16.20;;;14.60;;
9934;SDS011;5006;41.828;23.478;2023-05-19T04:14:15;15.02;;;13.45;;
9934;SDS011;5006;41.828;23.478;2023-05-19T04:15:20;17.10;;;15.35;;
9934;SDS011;5006;41.828;23.478;2023-05-19T04:16:27;15.93;;;14.32;;
9934;SDS011;5006;41.828;23.478;2023-05-19T04:17:33;16.77;;;15.18;;
9934;SDS011;5006;41.828;23.478;2023-05-19T04:18:39;17.00;;;15.32;;
9934;SDS011;5006;41.828;23.478;2023-05-19T04:19:45;16.67;;;15.10;;
9934;SDS011;5006;41.828;23.478;2023-05-19T04:20:51;16.27;;;14.55;;
9934;SDS011;5006;41.828;23.478;2023-05-19T04:21:59;15.80;;;14.30;;
9934;SDS011;5006;41.828;23.478;2023-05-19T04:23:05;15.88;;;14.27;;
9934;SDS011;5006;41.828;23.478;2023-05-19T04:24:10;15.05;;;13.60;;
9934;SDS011;5006;41.828;23.478;2023-05-19T04:25:17;15.20;;;13.65;;
9934;SDS011;5006;41.828;23.478;2023-05-19T04:26:23;15.23;;;13.82;;
9934;SDS011;5006;41.828;23.478;2023-05-19T04:27:30;14.45;;;13.25;;
9934;SDS011;5006;41.828;23.478;2023-05-19T04:28:36;14.07;;;12.77;;
9934;SDS011;5006;41.828;23.478;2023-05-19T04:29:43;14.88;;;13.57;;
9934;SDS011;5006;41.828;23.478;2023-05-19T04:30:49;14.80;;;13.40;;
9934;SDS011;5006;41.828;23.478;2023-05-19T04:31:56;14.35;;;12.95;;
9934;SDS011;5006;41.828;23.478;2023-05-19T04:33:01;13.95;;;12.70;;
9934;SDS011;5006;41.828;23.478;2023-05-19T04:34:08;14.93;;;12.75;;
9934;SDS011;5006;41.828;23.478;2023-05-19T04:35:14;13.50;;;12.10;;
9934;SDS011;5006;41.828;23.478;2023-05-19T04:36:21;12.90;;;11.63;;
9934;SDS011;5006;41.828;23.478;2023-05-19T04:37:30;13.13;;;11.88;;
9934;SDS011;5006;41.828;23.478;2023-05-19T04:38:37;13.07;;;11.77;;
9934;SDS011;5006;41.828;23.478;2023-05-19T04:39:44;13.48;;;12.27;;
9934;SDS011;5006;41.828;23.478;2023-05-19T04:40:51;14.88;;;13.45;;
9934;SDS011;5006;41.828;23.478;2023-05-19T04:41:56;13.27;;;11.55;;
9934;SDS011;5006;41.828;23.478;2023-05-19T04:43:02;12.57;;;10.93;;
9934;SDS011;5006;41.828;23.478;2023-05-19T04:44:09;13.48;;;12.25;;
9934;SDS011;5006;41.828;23.478;2023-05-19T04:45:16;13.43;;;12.02;;
9934;SDS011;5006;41.828;23.478;2023-05-19T04:46:24;14.55;;;12.98;;
9934;SDS011;5006;41.828;23.478;2023-05-19T04:47:35;15.07;;;13.57;;
9934;SDS011;5006;41.828;23.478;2023-05-19T04:48:42;14.50;;;13.18;;
9934;SDS011;5006;41.828;23.478;2023-05-19T04:49:49;16.02;;;12.95;;
9934;SDS011;5006;41.828;23.478;2023-05-19T04:50:59;16.95;;;15.20;;
9934;SDS011;5006;41.828;23.478;2023-05-19T04:52:06;17.08;;;15.55;;
9934;SDS011;5006;41.828;23.478;2023-05-19T04:53:16;18.10;;;16.40;;
9934;SDS011;5006;41.828;23.478;2023-05-19T04:54:23;17.55;;;15.38;;
9934;SDS011;5006;41.828;23.478;2023-05-19T04:55:29;17.02;;;15.23;;
9934;SDS011;5006;41.828;23.478;2023-05-19T04:56:37;16.63;;;15.02;;
9934;SDS011;5006;41.828;23.478;2023-05-19T04:57:43;22.08;;;19.52;;
9934;SDS011;5006;41.828;23.478;2023-05-19T04:58:48;29.08;;;26.20;;
